REACH55 KFFO-KLRF
Flight info
| Callsign | REACH55 |
|---|---|
| Flight time | 1h 58m |
| Altitude | 24000 |
| Route | DQN HOMAR SHB BIB FAM ARG DUMPI |
| Aircraft | C30J/M-SDE2E3FGRY/H |
Departure
| Time | 2026-05-09 01:33 |
|---|---|
| Airport | Wright-Patterson Air Force Base (KFFO) |
Arrival
| Time | 2026-05-09 03:32 |
|---|---|
| Airport | Little Rock Air Force Base (KLRF) |
| Time | Latitude | Longitude | Altitude | Speed | Heading |
|---|---|---|---|---|---|
| 2026-05-09 00:52 | 39.83691 | -84.04153 | 829 ft | 0 kts | 122° |
| 2026-05-09 01:08 | 39.83691 | -84.04152 | 828 ft | 0 kts | 121° |
| 2026-05-09 01:13 | 39.83690 | -84.04152 | 819 ft | 0 kts | 121° |
| 2026-05-09 01:29 | 39.83685 | -84.04139 | 825 ft | 2 kts | 121° |
| 2026-05-09 01:29 | 39.83681 | -84.04041 | 826 ft | 18 kts | 83° |
| 2026-05-09 01:29 | 39.83723 | -84.03945 | 822 ft | 16 kts | 49° |
| 2026-05-09 01:30 | 39.83786 | -84.03851 | 825 ft | 12 kts | 48° |
| 2026-05-09 01:30 | 39.83852 | -84.03757 | 824 ft | 11 kts | 47° |
| 2026-05-09 01:30 | 39.83890 | -84.03699 | 824 ft | 6 kts | 50° |
| 2026-05-09 01:30 | 39.83926 | -84.03640 | 824 ft | 9 kts | 59° |
| 2026-05-09 01:31 | 39.83950 | -84.03572 | 825 ft | 8 kts | 78° |
| 2026-05-09 01:31 | 39.83946 | -84.03487 | 823 ft | 9 kts | 108° |
| 2026-05-09 01:31 | 39.83928 | -84.03432 | 823 ft | 5 kts | 108° |
| 2026-05-09 01:31 | 39.83921 | -84.03401 | 826 ft | 2 kts | 105° |
| 2026-05-09 01:32 | 39.83897 | -84.03315 | 822 ft | 14 kts | 118° |
| 2026-05-09 01:32 | 39.83839 | -84.03240 | 823 ft | 14 kts | 142° |
| 2026-05-09 01:32 | 39.83767 | -84.03182 | 825 ft | 9 kts | 167° |
| 2026-05-09 01:32 | 39.83707 | -84.03223 | 825 ft | 26 kts | 230° |
| 2026-05-09 01:33 | 39.83366 | -84.03742 | 822 ft | 123 kts | 229° |
| 2026-05-09 01:33 | 39.82653 | -84.04770 | 1028 ft | 169 kts | 230° |
| 2026-05-09 01:33 | 39.81816 | -84.06034 | 1314 ft | 206 kts | 231° |
| 2026-05-09 01:33 | 39.80814 | -84.07551 | 1683 ft | 232 kts | 229° |
| 2026-05-09 01:34 | 39.79704 | -84.09144 | 2220 ft | 240 kts | 229° |
| 2026-05-09 01:34 | 39.78556 | -84.10768 | 2780 ft | 246 kts | 226° |
| 2026-05-09 01:34 | 39.77281 | -84.12360 | 3008 ft | 263 kts | 224° |
| 2026-05-09 01:34 | 39.75920 | -84.14023 | 3016 ft | 272 kts | 224° |
| 2026-05-09 01:35 | 39.74617 | -84.15616 | 2979 ft | 250 kts | 224° |
| 2026-05-09 01:35 | 39.73396 | -84.17108 | 2992 ft | 233 kts | 224° |
| 2026-05-09 01:35 | 39.72245 | -84.18513 | 2951 ft | 223 kts | 224° |
| 2026-05-09 01:35 | 39.71129 | -84.19870 | 2802 ft | 219 kts | 224° |
| 2026-05-09 01:36 | 39.70039 | -84.21188 | 2759 ft | 202 kts | 224° |
| 2026-05-09 01:36 | 39.69032 | -84.22396 | 2717 ft | 197 kts | 224° |
| 2026-05-09 01:36 | 39.68058 | -84.23624 | 2757 ft | 187 kts | 231° |
| 2026-05-09 01:36 | 39.67425 | -84.24974 | 3080 ft | 168 kts | 248° |
| 2026-05-09 01:37 | 39.67259 | -84.26435 | 3373 ft | 172 kts | 272° |
| 2026-05-09 01:37 | 39.67628 | -84.28042 | 3653 ft | 197 kts | 291° |
| 2026-05-09 01:37 | 39.68315 | -84.29594 | 4283 ft | 199 kts | 295° |
| 2026-05-09 01:37 | 39.69061 | -84.31117 | 4888 ft | 201 kts | 296° |
| 2026-05-09 01:38 | 39.69791 | -84.32643 | 5476 ft | 202 kts | 293° |
| 2026-05-09 01:38 | 39.70497 | -84.34220 | 6085 ft | 205 kts | 292° |
| 2026-05-09 01:38 | 39.71212 | -84.35864 | 6596 ft | 208 kts | 292° |
| 2026-05-09 01:38 | 39.71907 | -84.37460 | 7429 ft | 198 kts | 292° |
| 2026-05-09 01:39 | 39.72568 | -84.38992 | 8231 ft | 192 kts | 292° |
| 2026-05-09 01:39 | 39.73210 | -84.40496 | 8963 ft | 190 kts | 292° |
| 2026-05-09 01:39 | 39.73846 | -84.41996 | 9675 ft | 189 kts | 292° |
| 2026-05-09 01:39 | 39.74481 | -84.43496 | 10297 ft | 189 kts | 293° |
| 2026-05-09 01:40 | 39.75116 | -84.44998 | 10889 ft | 190 kts | 293° |
| 2026-05-09 01:40 | 39.75754 | -84.46511 | 11461 ft | 191 kts | 294° |
| 2026-05-09 01:40 | 39.76386 | -84.48009 | 12028 ft | 192 kts | 294° |
| 2026-05-09 01:40 | 39.77020 | -84.49514 | 12583 ft | 193 kts | 294° |
| 2026-05-09 01:41 | 39.77666 | -84.51047 | 13131 ft | 194 kts | 295° |
| 2026-05-09 01:41 | 39.78315 | -84.52590 | 13683 ft | 195 kts | 295° |
| 2026-05-09 01:41 | 39.78967 | -84.54141 | 14158 ft | 196 kts | 295° |
| 2026-05-09 01:41 | 39.79624 | -84.55705 | 14598 ft | 198 kts | 295° |
| 2026-05-09 01:42 | 39.80286 | -84.57281 | 15042 ft | 199 kts | 295° |
| 2026-05-09 01:42 | 39.80952 | -84.58869 | 15477 ft | 201 kts | 294° |
| 2026-05-09 01:42 | 39.81623 | -84.60468 | 15902 ft | 202 kts | 294° |
| 2026-05-09 01:42 | 39.82299 | -84.62078 | 16324 ft | 203 kts | 294° |
| 2026-05-09 01:43 | 39.82979 | -84.63700 | 16732 ft | 205 kts | 294° |
| 2026-05-09 01:43 | 39.83662 | -84.65333 | 17140 ft | 206 kts | 294° |
| 2026-05-09 01:43 | 39.84352 | -84.66980 | 17541 ft | 208 kts | 294° |
| 2026-05-09 01:43 | 39.85034 | -84.68610 | 17908 ft | 210 kts | 293° |
| 2026-05-09 01:44 | 39.85733 | -84.70281 | 18273 ft | 211 kts | 293° |
| 2026-05-09 01:44 | 39.86436 | -84.71961 | 18600 ft | 212 kts | 293° |
| 2026-05-09 01:44 | 39.87136 | -84.73637 | 18935 ft | 212 kts | 293° |
| 2026-05-09 01:44 | 39.87841 | -84.75323 | 19284 ft | 212 kts | 292° |
| 2026-05-09 01:45 | 39.88545 | -84.77011 | 19648 ft | 212 kts | 292° |
| 2026-05-09 01:45 | 39.89249 | -84.78699 | 19996 ft | 212 kts | 292° |
| 2026-05-09 01:45 | 39.89954 | -84.80390 | 20332 ft | 213 kts | 292° |
| 2026-05-09 01:45 | 39.90651 | -84.82061 | 20655 ft | 213 kts | 292° |
| 2026-05-09 01:46 | 39.91360 | -84.83766 | 20972 ft | 213 kts | 292° |
| 2026-05-09 01:46 | 39.92064 | -84.85457 | 21291 ft | 214 kts | 292° |
| 2026-05-09 01:46 | 39.92772 | -84.87160 | 21590 ft | 214 kts | 292° |
| 2026-05-09 01:46 | 39.93483 | -84.88869 | 21896 ft | 215 kts | 292° |
| 2026-05-09 01:47 | 39.94195 | -84.90583 | 22192 ft | 215 kts | 292° |
| 2026-05-09 01:47 | 39.94908 | -84.92299 | 22476 ft | 215 kts | 292° |
| 2026-05-09 01:47 | 39.95620 | -84.94015 | 22748 ft | 216 kts | 291° |
| 2026-05-09 01:47 | 39.96336 | -84.95742 | 23019 ft | 216 kts | 291° |
| 2026-05-09 01:48 | 39.97050 | -84.97465 | 23273 ft | 217 kts | 291° |
| 2026-05-09 01:48 | 39.97767 | -84.99194 | 23522 ft | 217 kts | 291° |
| 2026-05-09 01:48 | 39.98483 | -85.00926 | 23722 ft | 217 kts | 291° |
| 2026-05-09 01:48 | 39.99203 | -85.02666 | 23874 ft | 220 kts | 291° |
| 2026-05-09 01:49 | 39.99937 | -85.04445 | 23909 ft | 226 kts | 291° |
| 2026-05-09 01:49 | 40.00688 | -85.06265 | 23916 ft | 232 kts | 291° |
| 2026-05-09 01:49 | 40.01458 | -85.08133 | 23916 ft | 243 kts | 291° |
| 2026-05-09 01:49 | 40.02274 | -85.10112 | 23905 ft | 252 kts | 292° |
| 2026-05-09 01:50 | 40.03119 | -85.12160 | 23902 ft | 260 kts | 292° |
| 2026-05-09 01:50 | 40.03987 | -85.14263 | 23899 ft | 266 kts | 292° |
| 2026-05-09 01:50 | 40.04816 | -85.16440 | 23890 ft | 267 kts | 284° |
| 2026-05-09 01:50 | 40.04994 | -85.18823 | 23895 ft | 267 kts | 263° |
| 2026-05-09 01:51 | 40.04466 | -85.21174 | 23902 ft | 273 kts | 253° |
| 2026-05-09 01:51 | 40.03776 | -85.23498 | 23897 ft | 276 kts | 252° |
| 2026-05-09 01:51 | 40.03032 | -85.25825 | 23896 ft | 279 kts | 251° |
| 2026-05-09 01:51 | 40.02250 | -85.28155 | 23894 ft | 282 kts | 250° |
| 2026-05-09 01:52 | 40.01442 | -85.30490 | 23894 ft | 283 kts | 249° |
| 2026-05-09 01:52 | 40.00619 | -85.32832 | 23921 ft | 285 kts | 249° |
| 2026-05-09 01:52 | 39.99784 | -85.35180 | 23923 ft | 286 kts | 249° |
| 2026-05-09 01:52 | 39.98953 | -85.37502 | 23923 ft | 287 kts | 249° |
| 2026-05-09 01:53 | 39.98108 | -85.39855 | 23920 ft | 286 kts | 249° |
| 2026-05-09 01:53 | 39.97268 | -85.42183 | 23920 ft | 283 kts | 249° |
| 2026-05-09 01:53 | 39.96433 | -85.44494 | 23924 ft | 280 kts | 249° |
| 2026-05-09 01:53 | 39.95609 | -85.46773 | 23919 ft | 278 kts | 249° |
| 2026-05-09 01:54 | 39.94797 | -85.49017 | 23917 ft | 278 kts | 249° |
| 2026-05-09 01:54 | 39.93971 | -85.51298 | 23891 ft | 279 kts | 248° |
| 2026-05-09 01:54 | 39.93139 | -85.53591 | 23915 ft | 281 kts | 248° |
| 2026-05-09 01:54 | 39.92300 | -85.55900 | 23918 ft | 283 kts | 248° |
| 2026-05-09 01:55 | 39.91455 | -85.58225 | 23914 ft | 285 kts | 248° |
| 2026-05-09 01:55 | 39.90606 | -85.60560 | 23910 ft | 285 kts | 248° |
| 2026-05-09 01:55 | 39.89560 | -85.62728 | 23902 ft | 291 kts | 234° |
| 2026-05-09 01:55 | 39.88024 | -85.64492 | 23902 ft | 300 kts | 222° |
| 2026-05-09 01:56 | 39.86258 | -85.65950 | 23902 ft | 302 kts | 220° |
| 2026-05-09 01:56 | 39.84450 | -85.67354 | 23903 ft | 303 kts | 219° |
| 2026-05-09 01:56 | 39.82619 | -85.68720 | 23905 ft | 304 kts | 218° |
| 2026-05-09 01:56 | 39.80778 | -85.70062 | 23904 ft | 304 kts | 218° |
| 2026-05-09 01:57 | 39.78929 | -85.71392 | 23904 ft | 304 kts | 217° |
| 2026-05-09 01:57 | 39.77073 | -85.72716 | 23903 ft | 304 kts | 217° |
| 2026-05-09 01:57 | 39.75216 | -85.74035 | 23905 ft | 304 kts | 217° |
| 2026-05-09 01:57 | 39.73359 | -85.75350 | 23905 ft | 304 kts | 217° |
| 2026-05-09 01:58 | 39.71499 | -85.76666 | 23914 ft | 305 kts | 217° |
| 2026-05-09 01:58 | 39.69654 | -85.77969 | 23921 ft | 307 kts | 217° |
| 2026-05-09 01:58 | 39.67774 | -85.79295 | 23924 ft | 308 kts | 217° |
| 2026-05-09 01:58 | 39.65895 | -85.80624 | 23916 ft | 307 kts | 219° |
| 2026-05-09 01:59 | 39.64280 | -85.82319 | 23916 ft | 294 kts | 234° |
| 2026-05-09 01:59 | 39.63154 | -85.84482 | 23925 ft | 287 kts | 248° |
| 2026-05-09 01:59 | 39.62374 | -85.86855 | 23917 ft | 286 kts | 251° |
| 2026-05-09 01:59 | 39.61656 | -85.89252 | 23919 ft | 286 kts | 252° |
| 2026-05-09 02:00 | 39.60975 | -85.91672 | 23912 ft | 285 kts | 253° |
| 2026-05-09 02:00 | 39.60319 | -85.94100 | 23919 ft | 285 kts | 253° |
| 2026-05-09 02:00 | 39.59678 | -85.96532 | 23932 ft | 285 kts | 253° |
| 2026-05-09 02:00 | 39.59044 | -85.98965 | 23936 ft | 285 kts | 253° |
| 2026-05-09 02:01 | 39.58418 | -86.01390 | 23936 ft | 285 kts | 254° |
| 2026-05-09 02:01 | 39.57799 | -86.03797 | 23934 ft | 285 kts | 254° |
| 2026-05-09 02:01 | 39.57173 | -86.06233 | 23933 ft | 286 kts | 254° |
| 2026-05-09 02:01 | 39.56546 | -86.08678 | 23934 ft | 286 kts | 254° |
| 2026-05-09 02:02 | 39.55920 | -86.11119 | 23931 ft | 285 kts | 254° |
| 2026-05-09 02:02 | 39.55294 | -86.13560 | 23939 ft | 285 kts | 254° |
| 2026-05-09 02:02 | 39.54667 | -86.15998 | 23930 ft | 285 kts | 254° |
| 2026-05-09 02:02 | 39.54041 | -86.18437 | 23934 ft | 285 kts | 254° |
| 2026-05-09 02:03 | 39.53413 | -86.20876 | 23923 ft | 286 kts | 254° |
| 2026-05-09 02:03 | 39.52781 | -86.23329 | 23926 ft | 287 kts | 254° |
| 2026-05-09 02:03 | 39.52148 | -86.25784 | 23911 ft | 287 kts | 254° |
| 2026-05-09 02:03 | 39.51514 | -86.28240 | 23889 ft | 288 kts | 254° |
| 2026-05-09 02:04 | 39.50880 | -86.30695 | 23912 ft | 290 kts | 254° |
| 2026-05-09 02:04 | 39.50246 | -86.33144 | 23917 ft | 291 kts | 254° |
| 2026-05-09 02:04 | 39.49600 | -86.35639 | 23911 ft | 293 kts | 254° |
| 2026-05-09 02:04 | 39.48953 | -86.38137 | 23910 ft | 292 kts | 254° |
| 2026-05-09 02:05 | 39.48307 | -86.40623 | 23909 ft | 291 kts | 254° |
| 2026-05-09 02:05 | 39.47662 | -86.43106 | 23910 ft | 291 kts | 254° |
| 2026-05-09 02:05 | 39.47018 | -86.45586 | 23907 ft | 290 kts | 254° |
| 2026-05-09 02:05 | 39.46372 | -86.48064 | 23909 ft | 290 kts | 254° |
| 2026-05-09 02:06 | 39.45726 | -86.50543 | 23905 ft | 291 kts | 254° |
| 2026-05-09 02:06 | 39.45079 | -86.53024 | 23904 ft | 291 kts | 254° |
| 2026-05-09 02:06 | 39.44439 | -86.55474 | 23909 ft | 291 kts | 254° |
| 2026-05-09 02:07 | 39.43144 | -86.60426 | 23908 ft | 290 kts | 254° |
| 2026-05-09 02:07 | 39.42506 | -86.62860 | 23908 ft | 289 kts | 254° |
| 2026-05-09 02:07 | 39.41860 | -86.65323 | 23907 ft | 289 kts | 254° |
| 2026-05-09 02:07 | 39.41213 | -86.67789 | 23908 ft | 290 kts | 254° |
| 2026-05-09 02:08 | 39.40566 | -86.70250 | 23908 ft | 290 kts | 254° |
| 2026-05-09 02:08 | 39.39917 | -86.72718 | 23909 ft | 290 kts | 254° |
| 2026-05-09 02:08 | 39.39267 | -86.75187 | 23912 ft | 290 kts | 254° |
| 2026-05-09 02:08 | 39.38616 | -86.77656 | 23905 ft | 290 kts | 254° |
| 2026-05-09 02:09 | 39.37965 | -86.80123 | 23905 ft | 290 kts | 254° |
| 2026-05-09 02:09 | 39.37314 | -86.82590 | 23909 ft | 290 kts | 254° |
| 2026-05-09 02:09 | 39.36661 | -86.85057 | 23906 ft | 290 kts | 254° |
| 2026-05-09 02:09 | 39.36010 | -86.87517 | 23907 ft | 290 kts | 254° |
| 2026-05-09 02:10 | 39.35367 | -86.89946 | 23907 ft | 290 kts | 254° |
| 2026-05-09 02:10 | 39.34712 | -86.92415 | 23904 ft | 290 kts | 254° |
| 2026-05-09 02:10 | 39.34057 | -86.94881 | 23896 ft | 290 kts | 254° |
| 2026-05-09 02:10 | 39.33409 | -86.97322 | 23903 ft | 290 kts | 253° |
| 2026-05-09 02:11 | 39.32753 | -86.99786 | 23895 ft | 290 kts | 253° |
| 2026-05-09 02:11 | 39.32096 | -87.02253 | 23898 ft | 291 kts | 253° |
| 2026-05-09 02:11 | 39.31438 | -87.04721 | 23881 ft | 291 kts | 253° |
| 2026-05-09 02:11 | 39.30781 | -87.07183 | 23888 ft | 291 kts | 253° |
| 2026-05-09 02:12 | 39.30120 | -87.09659 | 23900 ft | 291 kts | 253° |
| 2026-05-09 02:12 | 39.29459 | -87.12130 | 23898 ft | 292 kts | 253° |
| 2026-05-09 02:12 | 39.28796 | -87.14610 | 23899 ft | 292 kts | 253° |
| 2026-05-09 02:12 | 39.28133 | -87.17084 | 23896 ft | 291 kts | 253° |
| 2026-05-09 02:13 | 39.27472 | -87.19550 | 23895 ft | 291 kts | 253° |
| 2026-05-09 02:13 | 39.26818 | -87.21985 | 23895 ft | 291 kts | 253° |
| 2026-05-09 02:13 | 39.26155 | -87.24454 | 23894 ft | 291 kts | 253° |
| 2026-05-09 02:13 | 39.25490 | -87.26924 | 23896 ft | 291 kts | 253° |
| 2026-05-09 02:14 | 39.24826 | -87.29393 | 23896 ft | 291 kts | 253° |
| 2026-05-09 02:14 | 39.24160 | -87.31864 | 23899 ft | 292 kts | 253° |
| 2026-05-09 02:14 | 39.23493 | -87.34335 | 23901 ft | 292 kts | 253° |
| 2026-05-09 02:14 | 39.22825 | -87.36809 | 23897 ft | 292 kts | 253° |
| 2026-05-09 02:15 | 39.22155 | -87.39287 | 23895 ft | 293 kts | 253° |
| 2026-05-09 02:15 | 39.21494 | -87.41732 | 23898 ft | 293 kts | 253° |
| 2026-05-09 02:15 | 39.20824 | -87.44204 | 23896 ft | 293 kts | 253° |
| 2026-05-09 02:15 | 39.20153 | -87.46681 | 23897 ft | 292 kts | 253° |
| 2026-05-09 02:16 | 39.19482 | -87.49154 | 23902 ft | 292 kts | 253° |
| 2026-05-09 02:16 | 39.18810 | -87.51627 | 23899 ft | 292 kts | 253° |
| 2026-05-09 02:16 | 39.18138 | -87.54100 | 23900 ft | 292 kts | 253° |
| 2026-05-09 02:16 | 39.17464 | -87.56574 | 23900 ft | 292 kts | 253° |
| 2026-05-09 02:17 | 39.16793 | -87.59036 | 23898 ft | 292 kts | 253° |
| 2026-05-09 02:17 | 39.16131 | -87.61465 | 23897 ft | 292 kts | 253° |
| 2026-05-09 02:17 | 39.15457 | -87.63936 | 23895 ft | 292 kts | 253° |
| 2026-05-09 02:17 | 39.14783 | -87.66401 | 23897 ft | 292 kts | 253° |
| 2026-05-09 02:18 | 39.14108 | -87.68871 | 23895 ft | 292 kts | 253° |
| 2026-05-09 02:18 | 39.13440 | -87.71309 | 23898 ft | 292 kts | 253° |
| 2026-05-09 02:18 | 39.12763 | -87.73782 | 23896 ft | 293 kts | 252° |
| 2026-05-09 02:18 | 39.12082 | -87.76262 | 23899 ft | 294 kts | 252° |
| 2026-05-09 02:19 | 39.11401 | -87.78742 | 23901 ft | 294 kts | 252° |
| 2026-05-09 02:19 | 39.10719 | -87.81223 | 23900 ft | 294 kts | 252° |
| 2026-05-09 02:19 | 39.10039 | -87.83696 | 23882 ft | 294 kts | 253° |
| 2026-05-09 02:19 | 39.09357 | -87.86172 | 23900 ft | 295 kts | 253° |
| 2026-05-09 02:20 | 39.08671 | -87.88664 | 23901 ft | 296 kts | 253° |
| 2026-05-09 02:20 | 39.07981 | -87.91163 | 23897 ft | 296 kts | 253° |
| 2026-05-09 02:20 | 39.07294 | -87.93650 | 23894 ft | 296 kts | 253° |
| 2026-05-09 02:20 | 39.06605 | -87.96143 | 23899 ft | 295 kts | 253° |
| 2026-05-09 02:21 | 39.05925 | -87.98600 | 23889 ft | 295 kts | 253° |
| 2026-05-09 02:21 | 39.05236 | -88.01090 | 23893 ft | 295 kts | 253° |
| 2026-05-09 02:21 | 39.04545 | -88.03580 | 23893 ft | 296 kts | 253° |
| 2026-05-09 02:21 | 39.03854 | -88.06070 | 23899 ft | 296 kts | 253° |
| 2026-05-09 02:22 | 39.03164 | -88.08557 | 23898 ft | 296 kts | 253° |
| 2026-05-09 02:22 | 39.02471 | -88.11049 | 23888 ft | 296 kts | 252° |
| 2026-05-09 02:22 | 39.01777 | -88.13540 | 23903 ft | 296 kts | 252° |
| 2026-05-09 02:22 | 39.01083 | -88.16031 | 23904 ft | 296 kts | 252° |
| 2026-05-09 02:23 | 39.00389 | -88.18522 | 23898 ft | 296 kts | 252° |
| 2026-05-09 02:23 | 38.99693 | -88.21012 | 23897 ft | 296 kts | 252° |
| 2026-05-09 02:23 | 38.99008 | -88.23467 | 23904 ft | 296 kts | 252° |
| 2026-05-09 02:23 | 38.98316 | -88.25939 | 23904 ft | 296 kts | 252° |
| 2026-05-09 02:24 | 38.97620 | -88.28428 | 23908 ft | 296 kts | 252° |
| 2026-05-09 02:24 | 38.96923 | -88.30914 | 23894 ft | 295 kts | 252° |
| 2026-05-09 02:24 | 38.96227 | -88.33394 | 23896 ft | 295 kts | 252° |
| 2026-05-09 02:24 | 38.95531 | -88.35875 | 23897 ft | 296 kts | 252° |
| 2026-05-09 02:25 | 38.94833 | -88.38359 | 23900 ft | 296 kts | 252° |
| 2026-05-09 02:25 | 38.94132 | -88.40851 | 23893 ft | 297 kts | 252° |
| 2026-05-09 02:25 | 38.93431 | -88.43341 | 23900 ft | 296 kts | 252° |
| 2026-05-09 02:25 | 38.92708 | -88.45821 | 23889 ft | 297 kts | 248° |
| 2026-05-09 02:26 | 38.91677 | -88.48096 | 23899 ft | 301 kts | 239° |
| 2026-05-09 02:26 | 38.90377 | -88.50224 | 23903 ft | 305 kts | 234° |
| 2026-05-09 02:26 | 38.89002 | -88.52298 | 23886 ft | 305 kts | 234° |
| 2026-05-09 02:26 | 38.87610 | -88.54362 | 23886 ft | 307 kts | 234° |
| 2026-05-09 02:27 | 38.86201 | -88.56428 | 23891 ft | 309 kts | 233° |
| 2026-05-09 02:27 | 38.84779 | -88.58500 | 23887 ft | 310 kts | 233° |
| 2026-05-09 02:27 | 38.83347 | -88.60577 | 23891 ft | 311 kts | 233° |
| 2026-05-09 02:27 | 38.81917 | -88.62645 | 23888 ft | 310 kts | 233° |
| 2026-05-09 02:28 | 38.80505 | -88.64684 | 23888 ft | 309 kts | 233° |
| 2026-05-09 02:28 | 38.79077 | -88.66743 | 23888 ft | 309 kts | 233° |
| 2026-05-09 02:28 | 38.77669 | -88.68774 | 23887 ft | 309 kts | 233° |
| 2026-05-09 02:28 | 38.76239 | -88.70832 | 23887 ft | 309 kts | 233° |
| 2026-05-09 02:29 | 38.74808 | -88.72890 | 23887 ft | 309 kts | 233° |
| 2026-05-09 02:29 | 38.73377 | -88.74947 | 23882 ft | 309 kts | 233° |
| 2026-05-09 02:29 | 38.71945 | -88.77003 | 23884 ft | 309 kts | 233° |
| 2026-05-09 02:29 | 38.70514 | -88.79057 | 23885 ft | 309 kts | 233° |
| 2026-05-09 02:30 | 38.69093 | -88.81094 | 23887 ft | 308 kts | 233° |
| 2026-05-09 02:30 | 38.67665 | -88.83140 | 23886 ft | 308 kts | 233° |
| 2026-05-09 02:30 | 38.66236 | -88.85186 | 23908 ft | 309 kts | 233° |
| 2026-05-09 02:30 | 38.64810 | -88.87226 | 23901 ft | 308 kts | 232° |
| 2026-05-09 02:31 | 38.63403 | -88.89237 | 23901 ft | 307 kts | 233° |
| 2026-05-09 02:31 | 38.61976 | -88.91275 | 23908 ft | 308 kts | 233° |
| 2026-05-09 02:31 | 38.60549 | -88.93313 | 23908 ft | 309 kts | 233° |
| 2026-05-09 02:31 | 38.59116 | -88.95358 | 23907 ft | 309 kts | 233° |
| 2026-05-09 02:32 | 38.57683 | -88.97399 | 23906 ft | 308 kts | 233° |
| 2026-05-09 02:32 | 38.56255 | -88.99434 | 23907 ft | 308 kts | 233° |
| 2026-05-09 02:32 | 38.54824 | -89.01470 | 23906 ft | 308 kts | 233° |
| 2026-05-09 02:32 | 38.53391 | -89.03509 | 23905 ft | 309 kts | 233° |
| 2026-05-09 02:33 | 38.51956 | -89.05549 | 23902 ft | 309 kts | 233° |
| 2026-05-09 02:33 | 38.50520 | -89.07588 | 23907 ft | 309 kts | 233° |
| 2026-05-09 02:33 | 38.49106 | -89.09595 | 23907 ft | 308 kts | 233° |
| 2026-05-09 02:33 | 38.47678 | -89.11621 | 23908 ft | 308 kts | 233° |
| 2026-05-09 02:34 | 38.46242 | -89.13657 | 23909 ft | 309 kts | 232° |
| 2026-05-09 02:34 | 38.44805 | -89.15692 | 23907 ft | 309 kts | 232° |
| 2026-05-09 02:34 | 38.43368 | -89.17727 | 23905 ft | 309 kts | 232° |
| 2026-05-09 02:34 | 38.41930 | -89.19760 | 23903 ft | 308 kts | 232° |
| 2026-05-09 02:35 | 38.40493 | -89.21792 | 23901 ft | 308 kts | 232° |
| 2026-05-09 02:35 | 38.39058 | -89.23819 | 23892 ft | 309 kts | 232° |
| 2026-05-09 02:35 | 38.37616 | -89.25854 | 23894 ft | 309 kts | 232° |
| 2026-05-09 02:35 | 38.36172 | -89.27891 | 23895 ft | 310 kts | 232° |
| 2026-05-09 02:36 | 38.34743 | -89.29905 | 23891 ft | 311 kts | 232° |
| 2026-05-09 02:36 | 38.33295 | -89.31946 | 23889 ft | 310 kts | 232° |
| 2026-05-09 02:36 | 38.31847 | -89.33984 | 23887 ft | 310 kts | 232° |
| 2026-05-09 02:36 | 38.30410 | -89.36006 | 23885 ft | 310 kts | 232° |
| 2026-05-09 02:37 | 38.28962 | -89.38041 | 23876 ft | 310 kts | 232° |
| 2026-05-09 02:37 | 38.27515 | -89.40075 | 23877 ft | 310 kts | 232° |
| 2026-05-09 02:37 | 38.26067 | -89.42108 | 23877 ft | 310 kts | 232° |
| 2026-05-09 02:37 | 38.24620 | -89.44138 | 23878 ft | 310 kts | 232° |
| 2026-05-09 02:38 | 38.23170 | -89.46171 | 23877 ft | 310 kts | 232° |
| 2026-05-09 02:38 | 38.21719 | -89.48204 | 23878 ft | 310 kts | 232° |
| 2026-05-09 02:38 | 38.20290 | -89.50205 | 23877 ft | 309 kts | 232° |
| 2026-05-09 02:38 | 38.18846 | -89.52226 | 23854 ft | 309 kts | 232° |
| 2026-05-09 02:39 | 38.17400 | -89.54249 | 23877 ft | 309 kts | 233° |
| 2026-05-09 02:39 | 38.15950 | -89.56275 | 23884 ft | 310 kts | 233° |
| 2026-05-09 02:39 | 38.14496 | -89.58306 | 23880 ft | 311 kts | 233° |
| 2026-05-09 02:39 | 38.13052 | -89.60320 | 23880 ft | 311 kts | 233° |
| 2026-05-09 02:40 | 38.11595 | -89.62353 | 23877 ft | 311 kts | 233° |
| 2026-05-09 02:40 | 38.10138 | -89.64383 | 23877 ft | 311 kts | 233° |
| 2026-05-09 02:40 | 38.08682 | -89.66412 | 23882 ft | 311 kts | 233° |
| 2026-05-09 02:40 | 38.07226 | -89.68438 | 23883 ft | 310 kts | 233° |
| 2026-05-09 02:41 | 38.05790 | -89.70435 | 23889 ft | 311 kts | 233° |
| 2026-05-09 02:41 | 38.04333 | -89.72461 | 23885 ft | 311 kts | 233° |
| 2026-05-09 02:41 | 38.02900 | -89.74451 | 23882 ft | 310 kts | 233° |
| 2026-05-09 02:41 | 38.01450 | -89.76465 | 23886 ft | 310 kts | 233° |
| 2026-05-09 02:42 | 37.99994 | -89.78485 | 23888 ft | 311 kts | 233° |
| 2026-05-09 02:42 | 37.98534 | -89.80510 | 23889 ft | 311 kts | 233° |
| 2026-05-09 02:42 | 37.97072 | -89.82536 | 23888 ft | 311 kts | 233° |
| 2026-05-09 02:42 | 37.95613 | -89.84556 | 23880 ft | 311 kts | 233° |
| 2026-05-09 02:43 | 37.94155 | -89.86573 | 23872 ft | 309 kts | 233° |
| 2026-05-09 02:43 | 37.92711 | -89.88569 | 23880 ft | 306 kts | 233° |
| 2026-05-09 02:43 | 37.91300 | -89.90520 | 23879 ft | 306 kts | 233° |
| 2026-05-09 02:43 | 37.89862 | -89.92508 | 23880 ft | 307 kts | 233° |
| 2026-05-09 02:44 | 37.88419 | -89.94500 | 23879 ft | 307 kts | 233° |
| 2026-05-09 02:44 | 37.86972 | -89.96495 | 23877 ft | 308 kts | 233° |
| 2026-05-09 02:44 | 37.85525 | -89.98490 | 23882 ft | 308 kts | 233° |
| 2026-05-09 02:44 | 37.84079 | -90.00482 | 23893 ft | 309 kts | 233° |
| 2026-05-09 02:45 | 37.82620 | -90.02492 | 23895 ft | 310 kts | 233° |
| 2026-05-09 02:45 | 37.81654 | -90.03821 | 23894 ft | 311 kts | 233° |
| 2026-05-09 02:45 | 37.80192 | -90.05831 | 23894 ft | 310 kts | 233° |
| 2026-05-09 02:45 | 37.78732 | -90.07838 | 23896 ft | 310 kts | 233° |
| 2026-05-09 02:46 | 37.77274 | -90.09840 | 23893 ft | 310 kts | 233° |
| 2026-05-09 02:46 | 37.75340 | -90.12495 | 23897 ft | 310 kts | 233° |
| 2026-05-09 02:46 | 37.73880 | -90.14498 | 23895 ft | 310 kts | 233° |
| 2026-05-09 02:46 | 37.72416 | -90.16505 | 23897 ft | 310 kts | 233° |
| 2026-05-09 02:47 | 37.71426 | -90.17861 | 23879 ft | 311 kts | 233° |
| 2026-05-09 02:47 | 37.69988 | -90.19829 | 23893 ft | 308 kts | 233° |
| 2026-05-09 02:47 | 37.68484 | -90.21749 | 23892 ft | 311 kts | 226° |
| 2026-05-09 02:47 | 37.66664 | -90.23271 | 23896 ft | 318 kts | 216° |
| 2026-05-09 02:48 | 37.64632 | -90.24439 | 23900 ft | 323 kts | 211° |
| 2026-05-09 02:48 | 37.62542 | -90.25511 | 23897 ft | 325 kts | 210° |
| 2026-05-09 02:48 | 37.60433 | -90.26552 | 23897 ft | 326 kts | 209° |
| 2026-05-09 02:48 | 37.58314 | -90.27573 | 23896 ft | 326 kts | 209° |
| 2026-05-09 02:49 | 37.56193 | -90.28583 | 23895 ft | 326 kts | 209° |
| 2026-05-09 02:49 | 37.54072 | -90.29588 | 23895 ft | 326 kts | 209° |
| 2026-05-09 02:49 | 37.51949 | -90.30588 | 23895 ft | 326 kts | 209° |
| 2026-05-09 02:49 | 37.49831 | -90.31584 | 23895 ft | 326 kts | 209° |
| 2026-05-09 02:50 | 37.47706 | -90.32582 | 23889 ft | 326 kts | 209° |
| 2026-05-09 02:50 | 37.45592 | -90.33573 | 23881 ft | 322 kts | 209° |
| 2026-05-09 02:50 | 37.43535 | -90.34536 | 23890 ft | 319 kts | 209° |
| 2026-05-09 02:50 | 37.41454 | -90.35511 | 23888 ft | 319 kts | 209° |
| 2026-05-09 02:51 | 37.39370 | -90.36487 | 23891 ft | 320 kts | 209° |
| 2026-05-09 02:51 | 37.37279 | -90.37465 | 23889 ft | 321 kts | 209° |
| 2026-05-09 02:51 | 37.35186 | -90.38443 | 23889 ft | 321 kts | 209° |
| 2026-05-09 02:51 | 37.33086 | -90.39424 | 23884 ft | 323 kts | 209° |
| 2026-05-09 02:52 | 37.30978 | -90.40408 | 23889 ft | 324 kts | 208° |
| 2026-05-09 02:52 | 37.28858 | -90.41396 | 23888 ft | 325 kts | 209° |
| 2026-05-09 02:52 | 37.26765 | -90.42370 | 23884 ft | 324 kts | 209° |
| 2026-05-09 02:52 | 37.24653 | -90.43353 | 23886 ft | 324 kts | 209° |
| 2026-05-09 02:53 | 37.22544 | -90.44334 | 23868 ft | 323 kts | 209° |
| 2026-05-09 02:53 | 37.20447 | -90.45309 | 23879 ft | 320 kts | 209° |
| 2026-05-09 02:53 | 37.18385 | -90.46267 | 23880 ft | 320 kts | 209° |
| 2026-05-09 02:53 | 37.16299 | -90.47237 | 23876 ft | 320 kts | 209° |
| 2026-05-09 02:54 | 37.14214 | -90.48205 | 23880 ft | 320 kts | 209° |
| 2026-05-09 02:54 | 37.12125 | -90.49174 | 23883 ft | 321 kts | 209° |
| 2026-05-09 02:54 | 37.10036 | -90.50143 | 23886 ft | 321 kts | 209° |
| 2026-05-09 02:54 | 37.07939 | -90.51115 | 23888 ft | 321 kts | 209° |
| 2026-05-09 02:55 | 37.05845 | -90.52084 | 23882 ft | 322 kts | 209° |
| 2026-05-09 02:55 | 37.03747 | -90.53054 | 23882 ft | 321 kts | 209° |
| 2026-05-09 02:55 | 37.01652 | -90.54023 | 23883 ft | 321 kts | 209° |
| 2026-05-09 02:55 | 36.99558 | -90.54991 | 23880 ft | 321 kts | 209° |
| 2026-05-09 02:56 | 36.97463 | -90.55958 | 23878 ft | 321 kts | 208° |
| 2026-05-09 02:56 | 36.95390 | -90.56915 | 23891 ft | 322 kts | 208° |
| 2026-05-09 02:56 | 36.93281 | -90.57888 | 23885 ft | 323 kts | 208° |
| 2026-05-09 02:56 | 36.91175 | -90.58859 | 23889 ft | 323 kts | 208° |
| 2026-05-09 02:57 | 36.89065 | -90.59830 | 23883 ft | 323 kts | 208° |
| 2026-05-09 02:57 | 36.86958 | -90.60800 | 23887 ft | 322 kts | 208° |
| 2026-05-09 02:57 | 36.84854 | -90.61768 | 23882 ft | 322 kts | 208° |
| 2026-05-09 02:57 | 36.82749 | -90.62736 | 23884 ft | 322 kts | 208° |
| 2026-05-09 02:58 | 36.80644 | -90.63703 | 23884 ft | 322 kts | 208° |
| 2026-05-09 02:58 | 36.78539 | -90.64670 | 23883 ft | 322 kts | 208° |
| 2026-05-09 02:58 | 36.76432 | -90.65637 | 23883 ft | 323 kts | 208° |
| 2026-05-09 02:58 | 36.74333 | -90.66600 | 23861 ft | 323 kts | 208° |
| 2026-05-09 02:59 | 36.72222 | -90.67567 | 23883 ft | 322 kts | 208° |
| 2026-05-09 02:59 | 36.70120 | -90.68530 | 23892 ft | 323 kts | 208° |
| 2026-05-09 02:59 | 36.68011 | -90.69496 | 23888 ft | 323 kts | 208° |
| 2026-05-09 02:59 | 36.65933 | -90.70447 | 23888 ft | 323 kts | 208° |
| 2026-05-09 03:00 | 36.63822 | -90.71412 | 23894 ft | 323 kts | 208° |
| 2026-05-09 03:00 | 36.61713 | -90.72376 | 23896 ft | 323 kts | 208° |
| 2026-05-09 03:00 | 36.59605 | -90.73338 | 23896 ft | 323 kts | 208° |
| 2026-05-09 03:00 | 36.57503 | -90.74298 | 23897 ft | 323 kts | 208° |
| 2026-05-09 03:01 | 36.55394 | -90.75260 | 23898 ft | 323 kts | 208° |
| 2026-05-09 03:01 | 36.53283 | -90.76223 | 23899 ft | 323 kts | 208° |
| 2026-05-09 03:01 | 36.51170 | -90.77185 | 23898 ft | 324 kts | 207° |
| 2026-05-09 03:01 | 36.49056 | -90.78148 | 23871 ft | 323 kts | 208° |
| 2026-05-09 03:02 | 36.46968 | -90.79096 | 23892 ft | 318 kts | 209° |
| 2026-05-09 03:02 | 36.44898 | -90.80038 | 23903 ft | 316 kts | 209° |
| 2026-05-09 03:02 | 36.42857 | -90.80967 | 23904 ft | 317 kts | 209° |
| 2026-05-09 03:02 | 36.40787 | -90.81908 | 23904 ft | 318 kts | 209° |
| 2026-05-09 03:03 | 36.38706 | -90.82854 | 23905 ft | 319 kts | 209° |
| 2026-05-09 03:03 | 36.36624 | -90.83798 | 23906 ft | 319 kts | 209° |
| 2026-05-09 03:03 | 36.34543 | -90.84742 | 23910 ft | 318 kts | 209° |
| 2026-05-09 03:03 | 36.32464 | -90.85684 | 23910 ft | 318 kts | 209° |
| 2026-05-09 03:04 | 36.30391 | -90.86623 | 23912 ft | 318 kts | 209° |
| 2026-05-09 03:04 | 36.28311 | -90.87565 | 23913 ft | 318 kts | 209° |
| 2026-05-09 03:04 | 36.26228 | -90.88508 | 23913 ft | 319 kts | 209° |
| 2026-05-09 03:04 | 36.24154 | -90.89445 | 23896 ft | 319 kts | 209° |
| 2026-05-09 03:05 | 36.22098 | -90.90374 | 23911 ft | 319 kts | 210° |
| 2026-05-09 03:05 | 36.20043 | -90.91303 | 23919 ft | 320 kts | 210° |
| 2026-05-09 03:05 | 36.17951 | -90.92247 | 23917 ft | 320 kts | 210° |
| 2026-05-09 03:05 | 36.15858 | -90.93191 | 23917 ft | 320 kts | 210° |
| 2026-05-09 03:06 | 36.13766 | -90.94134 | 23909 ft | 320 kts | 210° |
| 2026-05-09 03:06 | 36.11772 | -90.95259 | 23907 ft | 311 kts | 218° |
| 2026-05-09 03:06 | 36.09961 | -90.96678 | 23908 ft | 306 kts | 224° |
| 2026-05-09 03:06 | 36.08273 | -90.98262 | 23908 ft | 304 kts | 226° |
| 2026-05-09 03:07 | 36.06615 | -90.99878 | 23908 ft | 304 kts | 226° |
| 2026-05-09 03:07 | 36.04968 | -91.01515 | 23912 ft | 304 kts | 227° |
| 2026-05-09 03:07 | 36.03333 | -91.03158 | 23913 ft | 304 kts | 227° |
| 2026-05-09 03:07 | 36.01721 | -91.04788 | 23913 ft | 303 kts | 227° |
| 2026-05-09 03:08 | 36.00090 | -91.06442 | 23913 ft | 303 kts | 227° |
| 2026-05-09 03:08 | 35.98460 | -91.08096 | 23907 ft | 303 kts | 227° |
| 2026-05-09 03:08 | 35.96837 | -91.09745 | 23908 ft | 303 kts | 227° |
| 2026-05-09 03:08 | 35.95210 | -91.11398 | 23907 ft | 303 kts | 227° |
| 2026-05-09 03:09 | 35.93581 | -91.13052 | 23924 ft | 303 kts | 227° |
| 2026-05-09 03:09 | 35.91951 | -91.14706 | 23912 ft | 303 kts | 227° |
| 2026-05-09 03:09 | 35.90320 | -91.16361 | 23919 ft | 304 kts | 227° |
| 2026-05-09 03:09 | 35.88685 | -91.18020 | 23921 ft | 305 kts | 227° |
| 2026-05-09 03:10 | 35.87068 | -91.19659 | 23921 ft | 305 kts | 227° |
| 2026-05-09 03:10 | 35.85428 | -91.21319 | 23919 ft | 305 kts | 227° |
| 2026-05-09 03:10 | 35.83789 | -91.22978 | 23921 ft | 305 kts | 227° |
| 2026-05-09 03:10 | 35.82152 | -91.24634 | 23922 ft | 304 kts | 227° |
| 2026-05-09 03:11 | 35.80516 | -91.26288 | 23928 ft | 304 kts | 227° |
| 2026-05-09 03:11 | 35.78880 | -91.27942 | 23930 ft | 304 kts | 227° |
| 2026-05-09 03:11 | 35.77242 | -91.29596 | 23932 ft | 305 kts | 227° |
| 2026-05-09 03:11 | 35.75607 | -91.31246 | 23933 ft | 305 kts | 227° |
| 2026-05-09 03:12 | 35.73968 | -91.32899 | 23923 ft | 304 kts | 227° |
| 2026-05-09 03:12 | 35.72347 | -91.34531 | 23949 ft | 300 kts | 227° |
| 2026-05-09 03:12 | 35.70757 | -91.36133 | 23938 ft | 299 kts | 227° |
| 2026-05-09 03:12 | 35.69148 | -91.37754 | 23944 ft | 299 kts | 227° |
| 2026-05-09 03:13 | 35.65938 | -91.40982 | 23761 ft | 295 kts | 227° |
| 2026-05-09 03:13 | 35.64368 | -91.42559 | 23253 ft | 286 kts | 227° |
| 2026-05-09 03:13 | 35.62860 | -91.44070 | 22689 ft | 274 kts | 227° |
| 2026-05-09 03:14 | 35.61403 | -91.45535 | 22133 ft | 268 kts | 228° |
| 2026-05-09 03:14 | 35.59964 | -91.46981 | 21595 ft | 267 kts | 227° |
| 2026-05-09 03:14 | 35.58528 | -91.48425 | 21072 ft | 267 kts | 227° |
| 2026-05-09 03:14 | 35.57093 | -91.49865 | 20568 ft | 266 kts | 227° |
| 2026-05-09 03:15 | 35.55669 | -91.51293 | 20071 ft | 264 kts | 227° |
| 2026-05-09 03:15 | 35.54251 | -91.52713 | 19598 ft | 262 kts | 227° |
| 2026-05-09 03:15 | 35.52836 | -91.54130 | 19116 ft | 263 kts | 228° |
| 2026-05-09 03:15 | 35.51432 | -91.55537 | 18658 ft | 264 kts | 227° |
| 2026-05-09 03:16 | 35.50008 | -91.56960 | 18198 ft | 263 kts | 228° |
| 2026-05-09 03:16 | 35.48595 | -91.58372 | 17666 ft | 261 kts | 227° |
| 2026-05-09 03:16 | 35.47186 | -91.59780 | 17171 ft | 261 kts | 227° |
| 2026-05-09 03:16 | 35.45782 | -91.61182 | 16677 ft | 259 kts | 227° |
| 2026-05-09 03:17 | 35.44388 | -91.62573 | 16215 ft | 257 kts | 227° |
| 2026-05-09 03:17 | 35.43004 | -91.63953 | 15761 ft | 256 kts | 227° |
| 2026-05-09 03:17 | 35.41628 | -91.65325 | 15313 ft | 254 kts | 227° |
| 2026-05-09 03:17 | 35.40259 | -91.66691 | 14891 ft | 253 kts | 227° |
| 2026-05-09 03:18 | 35.38919 | -91.68026 | 14452 ft | 251 kts | 227° |
| 2026-05-09 03:18 | 35.37562 | -91.69377 | 13975 ft | 251 kts | 226° |
| 2026-05-09 03:18 | 35.36201 | -91.70731 | 13486 ft | 248 kts | 226° |
| 2026-05-09 03:18 | 35.34881 | -91.72045 | 12969 ft | 248 kts | 226° |
| 2026-05-09 03:19 | 35.33544 | -91.73376 | 12447 ft | 248 kts | 226° |
| 2026-05-09 03:19 | 35.32208 | -91.74704 | 11955 ft | 247 kts | 226° |
| 2026-05-09 03:19 | 35.30875 | -91.76029 | 11471 ft | 246 kts | 226° |
| 2026-05-09 03:19 | 35.29546 | -91.77349 | 11005 ft | 246 kts | 225° |
| 2026-05-09 03:20 | 35.28218 | -91.78667 | 10543 ft | 246 kts | 225° |
| 2026-05-09 03:20 | 35.26890 | -91.79985 | 10089 ft | 246 kts | 225° |
| 2026-05-09 03:20 | 35.25564 | -91.81301 | 9618 ft | 245 kts | 225° |
| 2026-05-09 03:20 | 35.24239 | -91.82615 | 9125 ft | 245 kts | 224° |
| 2026-05-09 03:21 | 35.22916 | -91.83925 | 8636 ft | 245 kts | 224° |
| 2026-05-09 03:21 | 35.21605 | -91.85223 | 8161 ft | 239 kts | 223° |
| 2026-05-09 03:21 | 35.20349 | -91.86465 | 7695 ft | 232 kts | 223° |
| 2026-05-09 03:21 | 35.19114 | -91.87687 | 7164 ft | 226 kts | 222° |
| 2026-05-09 03:22 | 35.17906 | -91.88883 | 6691 ft | 222 kts | 222° |
| 2026-05-09 03:22 | 35.16709 | -91.90068 | 6234 ft | 221 kts | 221° |
| 2026-05-09 03:22 | 35.15519 | -91.91244 | 5765 ft | 218 kts | 221° |
| 2026-05-09 03:22 | 35.14350 | -91.92400 | 5275 ft | 214 kts | 221° |
| 2026-05-09 03:23 | 35.13203 | -91.93533 | 4825 ft | 210 kts | 221° |
| 2026-05-09 03:23 | 35.12079 | -91.94642 | 4339 ft | 206 kts | 220° |
| 2026-05-09 03:23 | 35.10976 | -91.95731 | 3847 ft | 203 kts | 220° |
| 2026-05-09 03:23 | 35.09894 | -91.96800 | 3385 ft | 199 kts | 220° |
| 2026-05-09 03:24 | 35.08841 | -91.97837 | 3081 ft | 187 kts | 219° |
| 2026-05-09 03:24 | 35.07875 | -91.98789 | 2922 ft | 176 kts | 219° |
| 2026-05-09 03:24 | 35.06912 | -91.99670 | 2507 ft | 175 kts | 208° |
| 2026-05-09 03:24 | 35.05729 | -91.99904 | 2140 ft | 174 kts | 174° |
| 2026-05-09 03:25 | 35.04562 | -91.99541 | 2054 ft | 175 kts | 167° |
| 2026-05-09 03:25 | 35.03398 | -91.99075 | 2013 ft | 175 kts | 166° |
| 2026-05-09 03:25 | 35.02322 | -91.98620 | 1960 ft | 155 kts | 166° |
| 2026-05-09 03:25 | 35.01318 | -91.98195 | 1982 ft | 153 kts | 166° |
| 2026-05-09 03:26 | 35.00292 | -91.97768 | 1995 ft | 157 kts | 166° |
| 2026-05-09 03:26 | 34.99262 | -91.97339 | 1988 ft | 155 kts | 166° |
| 2026-05-09 03:26 | 34.98244 | -91.96933 | 1985 ft | 153 kts | 172° |
| 2026-05-09 03:26 | 34.97243 | -91.97084 | 2029 ft | 144 kts | 211° |
| 2026-05-09 03:27 | 34.96643 | -91.97948 | 1863 ft | 135 kts | 243° |
| 2026-05-09 03:27 | 34.96312 | -91.98997 | 1640 ft | 133 kts | 245° |
| 2026-05-09 03:27 | 34.96007 | -92.00038 | 1456 ft | 129 kts | 246° |
| 2026-05-09 03:27 | 34.95707 | -92.01071 | 1423 ft | 128 kts | 245° |
| 2026-05-09 03:28 | 34.95393 | -92.02083 | 1632 ft | 128 kts | 245° |
| 2026-05-09 03:28 | 34.95059 | -92.03103 | 1657 ft | 125 kts | 244° |
| 2026-05-09 03:28 | 34.94782 | -92.04037 | 1534 ft | 113 kts | 245° |
| 2026-05-09 03:28 | 34.94486 | -92.04914 | 1461 ft | 112 kts | 246° |
| 2026-05-09 03:29 | 34.94231 | -92.05812 | 1363 ft | 112 kts | 246° |
| 2026-05-09 03:29 | 34.93976 | -92.06710 | 1241 ft | 112 kts | 248° |
| 2026-05-09 03:29 | 34.93721 | -92.07611 | 1106 ft | 116 kts | 248° |
| 2026-05-09 03:29 | 34.93452 | -92.08544 | 1058 ft | 118 kts | 249° |
| 2026-05-09 03:30 | 34.93180 | -92.09487 | 1064 ft | 119 kts | 249° |
| 2026-05-09 03:30 | 34.92901 | -92.10439 | 938 ft | 119 kts | 249° |
| 2026-05-09 03:30 | 34.92621 | -92.11382 | 786 ft | 118 kts | 250° |
| 2026-05-09 03:30 | 34.92342 | -92.12322 | 634 ft | 118 kts | 252° |
| 2026-05-09 03:31 | 34.92074 | -92.13267 | 481 ft | 118 kts | 252° |
| 2026-05-09 03:31 | 34.91806 | -92.14204 | 372 ft | 117 kts | 252° |
| 2026-05-09 03:31 | 34.91552 | -92.15105 | 314 ft | 84 kts | 254° |
| 2026-05-09 03:31 | 34.91425 | -92.15564 | 319 ft | 50 kts | 250° |
| 2026-05-09 03:32 | 34.91291 | -92.16010 | 317 ft | 51 kts | 249° |
| 2026-05-09 03:32 | 34.91205 | -92.16322 | 317 ft | 28 kts | 250° |
| 2026-05-09 03:32 | 34.91147 | -92.16491 | 317 ft | 18 kts | 218° |
| 2026-05-09 03:32 | 34.91023 | -92.16486 | 318 ft | 16 kts | 160° |
| 2026-05-09 03:33 | 34.90934 | -92.16455 | 317 ft | 4 kts | 166° |
| 2026-05-09 03:33 | 34.90893 | -92.16419 | 317 ft | 7 kts | 122° |
| 2026-05-09 03:33 | 34.90891 | -92.16321 | 317 ft | 13 kts | 76° |
| 2026-05-09 03:33 | 34.90923 | -92.16199 | 316 ft | 17 kts | 69° |
| 2026-05-09 03:34 | 34.90923 | -92.16091 | 316 ft | 10 kts | 133° |
| 2026-05-09 03:34 | 34.90871 | -92.16061 | 317 ft | 7 kts | 157° |
| 2026-05-09 03:34 | 34.90821 | -92.16033 | 317 ft | 9 kts | 155° |
| 2026-05-09 03:34 | 34.90817 | -92.16031 | 317 ft | 0 kts | 155° |